Flight Track Log - Related Links

Times and Time Zones

All times are in EDT time to prevent confusion due to time zone crossing. See the LT912 flight status page for this flight to view local times or setup timezone preferences in your user account.

Time Position Orientation Groundspeed Altitude Reporting Facility
EDT Latitude Longitude Course Direction KTS MPH feet Rate Location/Type
Wed 01:07:42 AM 53.3000 -113.6333 349° North 150 173 4,100  Level Edmonton Center
Wed 01:08:42 AM 53.3500 -113.6500 349° North 150 173 6,000 1,800 Climbing Edmonton Center
Wed 01:09:42 AM 53.3833 -113.6000 42° Northeast 160 184 7,700 1,650 Climbing Edmonton Center
Wed 01:10:42 AM 53.4000 -113.5500 61° Northeast 150 173 9,300 1,700 Climbing Edmonton Center
Wed 01:11:42 AM 53.4333 -113.5000 42° Northeast 160 184 11,100 1,650 Climbing Edmonton Center
Wed 01:12:42 AM 53.4667 -113.4833 17° North 170 196 12,600 1,600 Climbing Edmonton Center
Wed 01:13:42 AM 53.5333 -113.4333 24° Northeast 170 196 14,300 1,550 Climbing Edmonton Center
Wed 01:14:42 AM 53.5667 -113.3833 42° Northeast 170 196 15,700 1,350 Climbing Edmonton Center
Wed 01:15:42 AM 53.6000 -113.3333 42° Northeast 180 207 17,000 1,100 Climbing Edmonton Center
Wed 01:16:42 AM 53.6500 -113.2833 31° Northeast 180 207 17,900 1,000 Climbing Edmonton Center
Wed 01:17:42 AM 53.6833 -113.2333 42° Northeast 180 207 19,000 1,050 Climbing Edmonton Center
Wed 01:18:42 AM 53.7333 -113.1833 31° Northeast 180 207 20,000 950 Climbing Edmonton Center
Wed 01:19:42 AM 53.7667 -113.1333 42° Northeast 190 219 20,900 500 Climbing Edmonton Center
Wed 01:20:42 AM 53.8333 -113.0667 31° Northeast 220 253 21,000 50 Climbing Edmonton Center
Wed 01:21:42 AM 53.8833 -113.0167 31° Northeast 240 276 21,000  Level Edmonton Center
Wed 01:22:42 AM 53.9333 -112.9333 44° Northeast 240 276 21,000  Level Edmonton Center
Wed 01:23:42 AM 54.0000 -112.8667 30° Northeast 240 276 21,000  Level Edmonton Center
Wed 01:24:42 AM 54.0500 -112.8167 30° Northeast 240 276 21,000  Level Edmonton Center
Wed 01:25:42 AM 54.1000 -112.7333 44° Northeast 240 276 21,000  Level Edmonton Center
Wed 01:26:42 AM 54.1667 -112.7000 16° North 240 276 21,000  Level Edmonton Center
Wed 01:27:42 AM 54.2333 -112.6833 North 230 265 21,000  Level Edmonton Center
Wed 01:28:42 AM 54.2833 -112.6333 30° Northeast 230 265 21,000  Level Edmonton Center
Wed 01:29:42 AM 54.3500 -112.6167 North 230 265 21,000  Level Edmonton Center
Wed 01:30:42 AM 54.4000 -112.5667 30° Northeast 230 265 21,000  Level Edmonton Center
Wed 01:31:42 AM 54.4833 -112.5167 19° North 230 265 21,000  Level Edmonton Center
Wed 01:32:42 AM 54.5333 -112.5000 11° North 230 265 21,000  Level Edmonton Center
Wed 01:33:42 AM 54.6000 -112.4500 23° Northeast 230 265 21,000  Level Edmonton Center
Wed 01:34:42 AM 54.6500 -112.4333 11° North 230 265 21,000  Level Edmonton Center
Wed 01:35:42 AM 54.7167 -112.4000 16° North 230 265 21,000  Level Edmonton Center
Wed 01:36:42 AM 54.8000 -112.3500 19° North 230 265 21,000  Level Edmonton Center
Wed 01:37:42 AM 54.8500 -112.3333 11° North 230 265 21,000  Level Edmonton Center
Wed 01:38:42 AM 54.9167 -112.2833 23° Northeast 230 265 21,000  Level Edmonton Center
Wed 01:39:42 AM 54.9667 -112.2667 11° North 230 265 21,000  Level Edmonton Center
Wed 01:40:42 AM 55.0333 -112.2167 23° Northeast 240 276 21,000  Level Edmonton Center
Wed 01:41:42 AM 55.1000 -112.1667 23° Northeast 240 276 21,000  Level Edmonton Center
Wed 01:42:42 AM 55.1667 -112.1167 23° Northeast 240 276 21,000  Level Edmonton Center
Wed 01:43:42 AM 55.2167 -112.1000 11° North 240 276 21,000  Level Edmonton Center
Wed 01:44:42 AM 55.2833 -112.0500 23° Northeast 240 276 21,000  Level Edmonton Center
Wed 01:45:42 AM 55.3500 -112.0000 23° Northeast 240 276 21,000  Level Edmonton Center
Wed 01:46:42 AM 55.4167 -111.9500 23° Northeast 240 276 21,000  Level Edmonton Center
Wed 01:47:42 AM 55.4667 -111.9000 30° Northeast 240 276 21,000  Level Edmonton Center
Wed 01:48:42 AM 55.5333 -111.8833 North 240 276 21,000  Level Edmonton Center
Wed 01:49:42 AM 55.6000 -111.8333 23° Northeast 240 276 21,000 -50 Level Edmonton Center
Wed 01:50:42 AM 55.6667 -111.7833 23° Northeast 240 276 20,900 -100 Descending Edmonton Center
Wed 01:51:42 AM 55.7333 -111.7500 16° North 240 276 20,800 -600 Descending Edmonton Center
Wed 01:52:42 AM 55.7833 -111.7000 29° Northeast 250 288 19,700 -1,150 Descending Edmonton Center
Wed 01:53:42 AM 55.8500 -111.6500 23° Northeast 260 299 18,500 -1,050 Descending Edmonton Center
Wed 01:54:42 AM 55.9333 -111.6000 19° North 260 299 17,600 -1,050 Descending Edmonton Center
Wed 01:55:42 AM 56.0000 -111.5500 23° Northeast 260 299 16,400 -1,300 Descending Edmonton Center
Wed 01:56:42 AM 56.0667 -111.5000 23° Northeast 250 288 15,000 -1,350 Descending Edmonton Center
Wed 01:57:42 AM 56.1333 -111.4833 North 250 288 13,700 -1,350 Descending Edmonton Center
Wed 01:58:42 AM 56.1833 -111.4333 29° Northeast 240 276 12,300 -1,400 Descending Edmonton Center
Wed 01:59:42 AM 56.2667 -111.3833 18° North 240 276 10,900 -1,450 Descending Edmonton Center
Wed 02:00:42 AM 56.3167 -111.3333 29° Northeast 230 265 9,400 -1,600 Descending Edmonton Center
Wed 02:01:42 AM 56.3833 -111.2833 23° Northeast 220 253 7,700 -1,650 Descending Edmonton Center
Wed 02:02:42 AM 56.4333 -111.2500 20° North 220 253 6,100 -1,600 Descending Edmonton Center
Wed 02:03:42 AM 56.5000 -111.2000 22° Northeast 220 253 4,500 -1,500 Descending Edmonton Center
Wed 02:04:42 AM 56.5500 -111.1833 10° North 200 230 3,100 -1,050 Descending Edmonton Center
Wed 02:05:42 AM 56.6000 -111.1667 10° North 180 207 2,400 -600 Descending Edmonton Center
Wed 02:06:42 AM 56.6333 -111.1667 360° North 140 161 1,900 -600 Descending Edmonton Center
Wed 02:07:42 AM 56.6333 -111.2333 270° West 120 138 1,200 -700 Descending Edmonton Center

Login

Don't have an account? Register now (free) for customized features, flight alerts, and more!